JST74 YPPH-WADD
Flight info
| Callsign | JST74 |
|---|---|
| Flight time | N/A |
| Altitude | 33000 |
| Route | AVNEX Y15 ESDEG Q587 METUM R592 GIWOT |
| Aircraft | A321/M-SDE3FGHIRWY/LB1 |
Departure
| Time | 2026-05-08 07:42 |
|---|---|
| Airport | Perth International Airport (YPPH) |
Arrival
| Time | N/A |
|---|---|
| Airport | Denpasar I Gusti Ngurah Rai International Airport (WADD) |
| Time | Latitude | Longitude | Altitude | Speed | Heading |
|---|---|---|---|---|---|
| 2026-05-08 06:43 | -31.94497 | 115.96863 | 49 ft | 0 kts | 14° |
| 2026-05-08 07:32 | -31.94505 | 115.96860 | 47 ft | 3 kts | 11° |
| 2026-05-08 07:32 | -31.94525 | 115.96857 | 50 ft | 3 kts | 356° |
| 2026-05-08 07:32 | -31.94544 | 115.96861 | 48 ft | 3 kts | 329° |
| 2026-05-08 07:32 | -31.94556 | 115.96874 | 49 ft | 2 kts | 288° |
| 2026-05-08 07:33 | -31.94557 | 115.96878 | 48 ft | 0 kts | 284° |
| 2026-05-08 07:35 | -31.94556 | 115.96873 | 49 ft | 3 kts | 284° |
| 2026-05-08 07:35 | -31.94549 | 115.96840 | 51 ft | 4 kts | 284° |
| 2026-05-08 07:36 | -31.94543 | 115.96812 | 51 ft | 4 kts | 284° |
| 2026-05-08 07:36 | -31.94535 | 115.96730 | 47 ft | 7 kts | 250° |
| 2026-05-08 07:36 | -31.94571 | 115.96701 | 51 ft | 6 kts | 198° |
| 2026-05-08 07:36 | -31.94596 | 115.96694 | 51 ft | 7 kts | 194° |
| 2026-05-08 07:37 | -31.94665 | 115.96674 | 51 ft | 10 kts | 194° |
| 2026-05-08 07:37 | -31.94730 | 115.96655 | 51 ft | 9 kts | 194° |
| 2026-05-08 07:37 | -31.94780 | 115.96641 | 51 ft | 8 kts | 194° |
| 2026-05-08 07:37 | -31.94827 | 115.96627 | 51 ft | 6 kts | 194° |
| 2026-05-08 07:38 | -31.94869 | 115.96614 | 51 ft | 9 kts | 194° |
| 2026-05-08 07:38 | -31.94965 | 115.96587 | 51 ft | 17 kts | 193° |
| 2026-05-08 07:38 | -31.95089 | 115.96550 | 51 ft | 20 kts | 194° |
| 2026-05-08 07:38 | -31.95236 | 115.96509 | 51 ft | 23 kts | 191° |
| 2026-05-08 07:39 | -31.95408 | 115.96468 | 51 ft | 27 kts | 194° |
| 2026-05-08 07:39 | -31.95602 | 115.96405 | 51 ft | 31 kts | 194° |
| 2026-05-08 07:39 | -31.95793 | 115.96347 | 51 ft | 24 kts | 194° |
| 2026-05-08 07:39 | -31.95909 | 115.96300 | 48 ft | 14 kts | 223° |
| 2026-05-08 07:40 | -31.95924 | 115.96217 | 51 ft | 8 kts | 283° |
| 2026-05-08 07:40 | -31.95915 | 115.96169 | 47 ft | 0 kts | 282° |
| 2026-05-08 07:41 | -31.95904 | 115.96112 | 51 ft | 17 kts | 283° |
| 2026-05-08 07:41 | -31.95857 | 115.95997 | 49 ft | 14 kts | 342° |
| 2026-05-08 07:41 | -31.95812 | 115.95992 | 49 ft | 0 kts | 3° |
| 2026-05-08 07:41 | -31.95698 | 115.96020 | 48 ft | 55 kts | 13° |
| 2026-05-08 07:42 | -31.95067 | 115.96206 | 48 ft | 129 kts | 14° |
| 2026-05-08 07:42 | -31.94003 | 115.96520 | 132 ft | 177 kts | 18° |
| 2026-05-08 07:42 | -31.92802 | 115.96878 | 937 ft | 178 kts | 15° |
| 2026-05-08 07:42 | -31.91600 | 115.97227 | 1837 ft | 178 kts | 19° |
| 2026-05-08 07:43 | -31.90394 | 115.97574 | 2378 ft | 182 kts | 19° |
| 2026-05-08 07:43 | -31.89104 | 115.97952 | 2527 ft | 200 kts | 18° |
| 2026-05-08 07:43 | -31.87668 | 115.98011 | 2860 ft | 219 kts | 346° |
| 2026-05-08 07:43 | -31.86403 | 115.96924 | 3224 ft | 244 kts | 306° |
| 2026-05-08 07:44 | -31.85861 | 115.94931 | 3364 ft | 276 kts | 274° |
| 2026-05-08 07:44 | -31.85786 | 115.92592 | 3711 ft | 295 kts | 272° |
| 2026-05-08 07:44 | -31.85664 | 115.90148 | 4303 ft | 298 kts | 279° |
| 2026-05-08 07:44 | -31.85109 | 115.87886 | 5349 ft | 283 kts | 300° |
| 2026-05-08 07:45 | -31.83989 | 115.86035 | 6096 ft | 276 kts | 321° |
| 2026-05-08 07:45 | -31.82408 | 115.84810 | 6731 ft | 272 kts | 342° |
| 2026-05-08 07:45 | -31.80584 | 115.84333 | 7326 ft | 268 kts | 2° |
| 2026-05-08 07:45 | -31.78717 | 115.84370 | 7945 ft | 269 kts | 5° |
| 2026-05-08 07:46 | -31.76837 | 115.84416 | 8552 ft | 271 kts | 4° |
| 2026-05-08 07:46 | -31.74938 | 115.84454 | 9176 ft | 274 kts | 4° |
| 2026-05-08 07:46 | -31.73044 | 115.84488 | 9768 ft | 277 kts | 4° |
| 2026-05-08 07:46 | -31.71080 | 115.84524 | 10282 ft | 284 kts | 4° |
| 2026-05-08 07:47 | -31.69060 | 115.84560 | 10396 ft | 304 kts | 3° |
| 2026-05-08 07:47 | -31.66882 | 115.84597 | 10521 ft | 322 kts | 3° |
| 2026-05-08 07:47 | -31.64586 | 115.84634 | 10742 ft | 336 kts | 3° |
| 2026-05-08 07:47 | -31.62226 | 115.84673 | 11226 ft | 341 kts | 3° |
| 2026-05-08 07:48 | -31.59841 | 115.84713 | 11760 ft | 344 kts | 3° |
| 2026-05-08 07:48 | -31.57434 | 115.84753 | 12298 ft | 347 kts | 3° |
| 2026-05-08 07:48 | -31.55011 | 115.84794 | 12849 ft | 350 kts | 3° |
| 2026-05-08 07:48 | -31.52562 | 115.84836 | 13388 ft | 353 kts | 3° |
| 2026-05-08 07:49 | -31.50092 | 115.84876 | 13922 ft | 357 kts | 3° |
| 2026-05-08 07:49 | -31.47600 | 115.84917 | 14422 ft | 360 kts | 3° |
| 2026-05-08 07:49 | -31.45090 | 115.84962 | 14901 ft | 363 kts | 3° |
| 2026-05-08 07:49 | -31.42558 | 115.85007 | 15376 ft | 365 kts | 3° |
| 2026-05-08 07:50 | -31.40008 | 115.85050 | 15845 ft | 368 kts | 3° |
| 2026-05-08 07:50 | -31.37439 | 115.85095 | 16314 ft | 370 kts | 3° |
| 2026-05-08 07:50 | -31.34846 | 115.85140 | 16772 ft | 373 kts | 3° |
| 2026-05-08 07:50 | -31.32245 | 115.85185 | 17237 ft | 376 kts | 3° |
| 2026-05-08 07:51 | -31.29620 | 115.85229 | 17691 ft | 378 kts | 3° |
| 2026-05-08 07:51 | -31.26981 | 115.85273 | 18151 ft | 381 kts | 3° |
| 2026-05-08 07:51 | -31.24323 | 115.85317 | 18582 ft | 383 kts | 4° |
| 2026-05-08 07:51 | -31.21649 | 115.85364 | 18963 ft | 386 kts | 3° |
| 2026-05-08 07:52 | -31.18953 | 115.85410 | 19331 ft | 388 kts | 3° |
| 2026-05-08 07:52 | -31.16275 | 115.85455 | 19683 ft | 391 kts | 3° |
| 2026-05-08 07:52 | -31.13541 | 115.85500 | 20036 ft | 394 kts | 3° |
| 2026-05-08 07:52 | -31.10794 | 115.85544 | 20394 ft | 396 kts | 3° |
| 2026-05-08 07:53 | -31.08026 | 115.85591 | 20745 ft | 399 kts | 3° |
| 2026-05-08 07:53 | -31.05238 | 115.85639 | 21093 ft | 402 kts | 3° |
| 2026-05-08 07:53 | -31.02435 | 115.85687 | 21456 ft | 404 kts | 3° |
| 2026-05-08 07:53 | -30.99616 | 115.85734 | 21803 ft | 406 kts | 3° |
| 2026-05-08 07:54 | -30.96783 | 115.85781 | 22143 ft | 409 kts | 3° |
| 2026-05-08 07:54 | -30.93924 | 115.85828 | 22482 ft | 411 kts | 2° |
| 2026-05-08 07:54 | -30.91054 | 115.85877 | 22795 ft | 414 kts | 3° |
| 2026-05-08 07:54 | -30.88162 | 115.85927 | 23101 ft | 417 kts | 3° |
| 2026-05-08 07:55 | -30.85248 | 115.85978 | 23422 ft | 420 kts | 2° |
| 2026-05-08 07:55 | -30.82315 | 115.86028 | 23725 ft | 423 kts | 2° |
| 2026-05-08 07:55 | -30.79355 | 115.86131 | 24006 ft | 426 kts | 4° |
| 2026-05-08 07:55 | -30.76394 | 115.86367 | 24270 ft | 428 kts | 6° |
| 2026-05-08 07:56 | -30.73424 | 115.86692 | 24542 ft | 429 kts | 7° |
| 2026-05-08 07:56 | -30.70448 | 115.87059 | 24814 ft | 431 kts | 7° |
| 2026-05-08 07:56 | -30.67456 | 115.87431 | 25082 ft | 433 kts | 7° |
| 2026-05-08 07:56 | -30.64451 | 115.87788 | 25342 ft | 435 kts | 6° |
| 2026-05-08 07:57 | -30.61037 | 115.88165 | 25639 ft | 437 kts | 6° |
| 2026-05-08 07:57 | -30.58395 | 115.88436 | 25869 ft | 439 kts | 6° |
| 2026-05-08 07:57 | -30.55339 | 115.88738 | 26126 ft | 441 kts | 6° |
| 2026-05-08 07:57 | -30.52280 | 115.89036 | 26381 ft | 443 kts | 5° |
| 2026-05-08 07:58 | -30.49204 | 115.89344 | 26629 ft | 444 kts | 5° |
| 2026-05-08 07:58 | -30.46117 | 115.89657 | 26894 ft | 446 kts | 6° |
| 2026-05-08 07:58 | -30.43058 | 115.89972 | 27133 ft | 448 kts | 5° |
| 2026-05-08 07:58 | -30.39942 | 115.90295 | 27352 ft | 450 kts | 5° |
| 2026-05-08 07:59 | -30.36815 | 115.90615 | 27600 ft | 452 kts | 5° |
| 2026-05-08 07:59 | -30.33677 | 115.90932 | 27831 ft | 454 kts | 5° |
| 2026-05-08 07:59 | -30.30527 | 115.91253 | 28063 ft | 455 kts | 5° |
| 2026-05-08 07:59 | -30.27362 | 115.91579 | 28276 ft | 457 kts | 5° |
| 2026-05-08 08:00 | -30.24185 | 115.91906 | 28492 ft | 459 kts | 5° |
| 2026-05-08 08:00 | -30.20996 | 115.92235 | 28697 ft | 461 kts | 5° |
| 2026-05-08 08:00 | -30.17795 | 115.92563 | 28912 ft | 463 kts | 4° |
| 2026-05-08 08:00 | -30.14580 | 115.92891 | 29088 ft | 465 kts | 4° |
| 2026-05-08 08:01 | -30.11351 | 115.93219 | 29287 ft | 467 kts | 4° |
| 2026-05-08 08:01 | -30.08112 | 115.93550 | 29519 ft | 468 kts | 4° |
| 2026-05-08 08:01 | -30.04864 | 115.93881 | 29802 ft | 468 kts | 4° |
| 2026-05-08 08:01 | -30.01623 | 115.94208 | 30106 ft | 467 kts | 5° |
| 2026-05-08 08:02 | -29.98389 | 115.94534 | 30385 ft | 467 kts | 4° |
| 2026-05-08 08:02 | -29.95156 | 115.94863 | 30636 ft | 466 kts | 4° |
| 2026-05-08 08:02 | -29.91920 | 115.95192 | 30873 ft | 466 kts | 4° |
| 2026-05-08 08:02 | -29.88687 | 115.95519 | 31085 ft | 467 kts | 3° |
| 2026-05-08 08:03 | -29.85449 | 115.95847 | 31279 ft | 468 kts | 4° |
| 2026-05-08 08:03 | -29.82211 | 115.96175 | 31483 ft | 468 kts | 4° |
| 2026-05-08 08:03 | -29.78968 | 115.96504 | 31741 ft | 467 kts | 3° |
| 2026-05-08 08:03 | -29.75730 | 115.96832 | 31981 ft | 466 kts | 3° |
| 2026-05-08 08:04 | -29.72499 | 115.97159 | 32208 ft | 466 kts | 3° |
| 2026-05-08 08:04 | -29.69273 | 115.97486 | 32455 ft | 466 kts | 3° |
| 2026-05-08 08:04 | -29.66047 | 115.97814 | 32711 ft | 465 kts | 3° |
| 2026-05-08 08:04 | -29.62870 | 115.98138 | 32943 ft | 464 kts | 4° |
| 2026-05-08 08:05 | -29.59654 | 115.98467 | 33155 ft | 464 kts | 2° |
| 2026-05-08 08:05 | -29.56433 | 115.98791 | 33267 ft | 463 kts | 3° |
| 2026-05-08 08:05 | -29.53231 | 115.99117 | 33291 ft | 461 kts | 3° |
| 2026-05-08 08:06 | -29.46861 | 115.99756 | 33284 ft | 459 kts | 3° |